Time;durP1;ratioP1;P1;durP2;ratioP2;P2;SDS_P1;SDS_P2;PMS_P1;PMS_P2;Temp;Humidity;BMP_temperature;BMP_pressure;BME280_temperature;BME280_humidity;BME280_pressure;Samples;Min_cycle;Max_cycle;Signal;HPM_P1;HPM_P2
2022/04/17 00:02:01;;;;;;;8.48;3.17;;;6.90;68.80;;;;;;5054223;28;20021;-58
2022/04/17 00:04:26;;;;;;;6.95;2.80;;;6.90;69.50;;;;;;5053937;28;20024;-60
2022/04/17 00:06:52;;;;;;;5.47;3.00;;;6.90;69.40;;;;;;5053837;28;20082;-56
2022/04/17 00:09:18;;;;;;;6.82;2.92;;;6.80;70.00;;;;;;5054078;28;20029;-59
2022/04/17 00:11:44;;;;;;;5.72;3.38;;;6.80;70.10;;;;;;5054181;28;20029;-58
2022/04/17 00:14:12;;;;;;;6.00;2.75;;;6.80;70.30;;;;;;5054207;28;20492;-58
2022/04/17 00:16:46;;;;;;;6.13;3.05;;;6.80;70.00;;;;;;5053910;28;20075;-59
2022/04/17 00:19:12;;;;;;;6.20;3.30;;;6.80;70.50;;;;;;5052494;28;20037;-59
2022/04/17 00:21:38;;;;;;;6.65;3.13;;;6.90;70.90;;;;;;5053692;28;20132;-59
2022/04/17 00:24:04;;;;;;;4.95;3.00;;;6.80;70.90;;;;;;5054161;28;20524;-58
2022/04/17 00:26:30;;;;;;;7.65;2.97;;;6.70;71.30;;;;;;5053888;28;20017;-58
2022/04/17 00:28:57;;;;;;;9.48;3.75;;;6.60;71.70;;;;;;5053702;28;20021;-58
2022/04/17 00:31:23;;;;;;;6.15;3.10;;;6.60;71.40;;;;;;5053799;28;20200;-59
2022/04/17 00:33:48;;;;;;;8.73;3.47;;;6.70;71.70;;;;;;5053612;28;20396;-67
2022/04/17 00:36:14;;;;;;;5.53;3.42;;;6.60;71.90;;;;;;5053597;28;20377;-57
2022/04/17 00:38:39;;;;;;;8.43;3.13;;;6.60;72.50;;;;;;5053585;28;20112;-59
2022/04/17 00:41:05;;;;;;;5.38;3.03;;;6.60;73.10;;;;;;5053411;28;20052;-59
2022/04/17 00:43:32;;;;;;;6.63;2.92;;;6.60;72.80;;;;;;5053646;28;20029;-59
2022/04/17 00:45:59;;;;;;;6.47;3.25;;;6.60;73.00;;;;;;5053150;28;20017;-62
2022/04/17 00:48:26;;;;;;;3.67;2.47;;;6.50;73.10;;;;;;5053590;28;20463;-57
2022/04/17 00:50:54;;;;;;;6.78;3.50;;;6.50;73.40;;;;;;5051462;28;20112;-58
2022/04/17 00:53:21;;;;;;;5.47;3.20;;;6.50;73.40;;;;;;5053288;28;20098;-58
2022/04/17 00:55:48;;;;;;;5.35;3.03;;;6.40;73.60;;;;;;5053233;28;20048;-57
2022/04/17 00:58:14;;;;;;;4.80;3.22;;;6.40;74.40;;;;;;5052938;28;20028;-58
2022/04/17 01:00:40;;;;;;;6.35;3.05;;;6.30;75.20;;;;;;5053528;28;20021;-58
2022/04/17 01:03:07;;;;;;;6.20;3.47;;;6.30;75.60;;;;;;5050836;28;20104;-58
2022/04/17 01:05:32;;;;;;;5.13;2.80;;;6.30;75.40;;;;;;5052446;28;20131;-57
2022/04/17 01:07:58;;;;;;;5.47;3.00;;;6.20;76.20;;;;;;5052827;28;20033;-59
2022/04/17 01:10:24;;;;;;;8.68;3.20;;;6.10;76.50;;;;;;5055041;28;20029;-60
2022/04/17 01:12:53;;;;;;;6.43;2.83;;;6.10;76.50;;;;;;5054721;28;20017;-59
2022/04/17 01:15:19;;;;;;;7.32;3.03;;;6.10;76.60;;;;;;5053282;28;20040;-58
2022/04/17 01:17:45;;;;;;;4.50;2.97;;;6.00;77.90;;;;;;5052699;28;20037;-57
2022/04/17 01:20:12;;;;;;;11.18;3.25;;;6.00;77.70;;;;;;5052530;28;20483;-57
2022/04/17 01:22:44;;;;;;;5.72;2.78;;;6.00;77.70;;;;;;5052921;28;20029;-58
2022/04/17 01:27:54;;;;;;;6.35;3.40;;;5.90;78.30;;;;;;5052375;28;20036;-58
2022/04/17 01:30:19;;;;;;;6.15;3.25;;;5.90;79.20;;;;;;5052641;28;20032;-57
2022/04/17 01:32:45;;;;;;;5.15;2.75;;;5.80;78.90;;;;;;5053069;28;20025;-61
2022/04/17 01:35:10;;;;;;;7.40;3.50;;;5.80;78.90;;;;;;5052577;28;20025;-56
2022/04/17 01:37:36;;;;;;;5.95;2.70;;;5.70;79.20;;;;;;5052201;28;20396;-59
2022/04/17 01:40:01;;;;;;;4.10;2.83;;;5.70;79.50;;;;;;5052455;28;20092;-60
2022/04/17 01:42:27;;;;;;;6.22;3.30;;;5.60;80.10;;;;;;5052488;28;20476;-60
2022/04/17 01:44:52;;;;;;;7.25;3.58;;;5.50;80.80;;;;;;5052435;28;20021;-58
2022/04/17 01:47:18;;;;;;;8.50;2.97;;;5.50;80.90;;;;;;5052035;28;20036;-59
2022/04/17 01:49:43;;;;;;;4.82;2.78;;;5.40;81.00;;;;;;5052144;28;20021;-61
2022/04/17 01:52:09;;;;;;;4.45;2.72;;;5.40;81.60;;;;;;5051291;28;20021;-59
2022/04/17 01:54:35;;;;;;;4.78;2.75;;;5.30;83.90;;;;;;5052229;28;20025;-60
2022/04/17 01:57:00;;;;;;;6.35;3.20;;;5.30;82.60;;;;;;5051709;28;20032;-57
2022/04/17 01:59:26;;;;;;;5.20;2.90;;;5.30;83.00;;;;;;5052065;28;20099;-60
2022/04/17 02:01:52;;;;;;;5.47;2.40;;;5.30;83.20;;;;;;5052228;28;20040;-59
2022/04/17 02:04:18;;;;;;;5.85;3.55;;;5.30;83.00;;;;;;5052104;28;20052;-59
2022/04/17 02:06:44;;;;;;;5.53;2.60;;;5.40;82.80;;;;;;5051900;28;20064;-59
2022/04/17 02:09:11;;;;;;;6.80;3.25;;;5.40;82.60;;;;;;5050495;28;20551;-60
2022/04/17 02:11:40;;;;;;;6.88;3.20;;;5.30;83.20;;;;;;5051913;28;20484;-58
2022/04/17 02:14:07;;;;;;;7.85;2.88;;;5.30;84.00;;;;;;5051778;28;20422;-64
2022/04/17 02:16:32;;;;;;;4.22;2.47;;;5.10;84.80;;;;;;5051782;28;20025;-60
2022/04/17 02:19:00;;;;;;;6.75;3.03;;;5.20;84.40;;;;;;5051640;28;20021;-60
2022/04/17 02:21:26;;;;;;;5.53;3.10;;;5.10;85.00;;;;;;5051742;28;20024;-58
2022/04/17 02:23:52;;;;;;;6.78;3.17;;;5.10;85.20;;;;;;5051789;28;20025;-59
2022/04/17 02:26:17;;;;;;;8.90;3.00;;;5.00;86.10;;;;;;5050965;28;20039;-60
2022/04/17 02:28:43;;;;;;;6.18;3.05;;;5.00;86.50;;;;;;5051652;28;20021;-58
2022/04/17 02:31:10;;;;;;;4.75;2.60;;;5.00;86.20;;;;;;5051696;28;20130;-59
2022/04/17 02:33:37;;;;;;;5.70;3.05;;;4.90;87.50;;;;;;5051773;28;20044;-60
2022/04/17 02:36:04;;;;;;;7.13;2.42;;;4.90;86.90;;;;;;5051741;28;20088;-55
2022/04/17 02:38:30;;;;;;;5.47;2.58;;;5.00;86.10;;;;;;5051523;28;20108;-58
2022/04/17 02:40:56;;;;;;;4.63;2.85;;;5.00;86.40;;;;;;5051616;28;20060;-57
2022/04/17 02:43:21;;;;;;;7.95;3.42;;;5.00;86.30;;;;;;5051515;28;20116;-58
2022/04/17 02:45:47;;;;;;;5.93;2.65;;;5.00;86.40;;;;;;5051464;28;20074;-57
2022/04/17 02:48:13;;;;;;;3.40;2.03;;;5.00;86.90;;;;;;5051430;28;20091;-59
2022/04/17 02:50:39;;;;;;;8.30;3.53;;;5.00;87.30;;;;;;5050889;28;20152;-58
2022/04/17 02:53:06;;;;;;;7.60;2.45;;;4.90;87.50;;;;;;5051331;28;20419;-60
2022/04/17 02:55:32;;;;;;;5.68;2.70;;;5.00;87.70;;;;;;5051228;28;20579;-58
2022/04/17 02:57:58;;;;;;;5.63;2.35;;;4.90;87.50;;;;;;5051159;28;20099;-58
2022/04/17 03:00:24;;;;;;;6.07;2.72;;;5.00;87.60;;;;;;5051420;28;20092;-60
2022/04/17 03:05:36;;;;;;;4.75;2.47;;;4.90;88.60;;;;;;5054451;28;20118;-59
2022/04/17 03:08:16;;;;;;;6.90;2.83;;;4.80;90.00;;;;;;5055217;28;20040;-58
2022/04/17 03:10:43;;;;;;;7.55;3.42;;;4.70;90.70;;;;;;5055485;28;20491;-59
2022/04/17 03:13:10;;;;;;;4.63;2.42;;;4.50;91.00;;;;;;5055364;28;20091;-59
2022/04/17 03:15:37;;;;;;;8.40;2.50;;;4.40;92.20;;;;;;5055268;28;20514;-58
2022/04/17 03:18:04;;;;;;;4.63;2.70;;;4.40;92.40;;;;;;5054774;28;20022;-57
2022/04/17 03:20:30;;;;;;;5.85;2.85;;;4.40;92.60;;;;;;5054919;28;20499;-59
2022/04/17 03:22:55;;;;;;;5.50;2.95;;;4.30;92.60;;;;;;5055153;28;20103;-57
2022/04/17 03:25:21;;;;;;;4.75;2.95;;;4.30;93.20;;;;;;5055002;28;20170;-57
2022/04/17 03:27:47;;;;;;;9.60;2.88;;;4.20;93.70;;;;;;5054854;28;20032;-60
2022/04/17 03:30:17;;;;;;;4.72;2.60;;;4.20;94.00;;;;;;5054935;28;20024;-58
2022/04/17 03:32:44;;;;;;;9.02;2.53;;;4.10;94.50;;;;;;5054828;28;20036;-58
2022/04/17 03:35:10;;;;;;;6.45;3.00;;;4.20;93.90;;;;;;5054958;28;20499;-60
2022/04/17 03:37:36;;;;;;;5.40;2.50;;;4.20;94.40;;;;;;5054333;28;20536;-58
2022/04/17 03:40:02;;;;;;;5.97;2.90;;;4.20;94.50;;;;;;5054920;28;20068;-58
2022/04/17 03:42:27;;;;;;;8.32;2.85;;;4.30;94.10;;;;;;5055855;28;20021;-61
2022/04/17 03:44:53;;;;;;;6.13;2.60;;;4.20;94.40;;;;;;5057517;28;20036;-60
2022/04/17 03:47:18;;;;;;;5.78;2.83;;;4.20;94.40;;;;;;5054583;28;20028;-59
2022/04/17 03:49:44;;;;;;;6.53;2.53;;;4.20;94.60;;;;;;5054101;28;20024;-60
2022/04/17 03:52:09;;;;;;;5.68;2.75;;;4.30;93.90;;;;;;5054720;28;20040;-58
2022/04/17 03:54:35;;;;;;;3.45;2.00;;;4.30;94.10;;;;;;5054342;28;20025;-57
2022/04/17 03:57:01;;;;;;;5.30;2.60;;;4.30;94.20;;;;;;5053948;28;20095;-58
2022/04/17 03:59:26;;;;;;;4.78;2.42;;;4.40;93.80;;;;;;5054382;28;20064;-59
2022/04/17 04:01:52;;;;;;;9.88;2.22;;;4.40;94.00;;;;;;5054085;28;20094;-59
2022/04/17 04:04:19;;;;;;;3.80;2.20;;;4.30;95.00;;;;;;5052944;28;20417;-57
2022/04/17 04:06:44;;;;;;;4.15;2.28;;;4.30;95.40;;;;;;5054351;28;20399;-60
2022/04/17 04:09:10;;;;;;;7.80;2.50;;;4.20;95.50;;;;;;5055661;28;20096;-59
2022/04/17 04:11:36;;;;;;;5.38;2.05;;;4.10;95.60;;;;;;5054203;28;20039;-60
2022/04/17 04:14:05;;;;;;;4.55;2.25;;;4.20;95.40;;;;;;5054112;28;20040;-57
2022/04/17 04:16:31;;;;;;;4.30;2.05;;;4.20;95.40;;;;;;5053216;28;20508;-57
2022/04/17 04:18:56;;;;;;;3.80;2.17;;;4.20;95.40;;;;;;5053908;28;20073;-58
2022/04/17 04:21:22;;;;;;;4.68;2.33;;;4.20;95.60;;;;;;5054178;28;20029;-60
2022/04/17 04:23:48;;;;;;;6.35;2.60;;;4.20;95.80;;;;;;5054065;28;20037;-58
2022/04/17 04:26:14;;;;;;;3.65;2.38;;;4.20;95.80;;;;;;5053950;28;20476;-58
2022/04/17 04:28:39;;;;;;;5.60;2.63;;;4.20;95.50;;;;;;5053846;28;20102;-57
2022/04/17 04:31:10;;;;;;;8.10;2.97;;;4.20;95.90;;;;;;5053891;28;20035;-58
2022/04/17 04:33:37;;;;;;;5.50;2.90;;;4.10;96.40;;;;;;5053752;28;20155;-57
2022/04/17 04:36:05;;;;;;;5.18;2.80;;;4.10;96.70;;;;;;5053557;28;20079;-57
2022/04/17 04:38:32;;;;;;;7.47;3.15;;;4.00;97.10;;;;;;5053570;28;20098;-59
2022/04/17 04:40:59;;;;;;;8.65;3.17;;;3.90;97.30;;;;;;5053827;28;20083;-58
2022/04/17 04:43:24;;;;;;;5.32;2.55;;;3.80;98.30;;;;;;5053828;28;20025;-56
2022/04/17 04:46:09;;;;;;;3.50;2.33;;;3.80;98.50;;;;;;5053628;28;20362;-58
2022/04/17 04:51:27;;;;;;;8.18;3.00;;;3.90;97.90;;;;;;5053789;28;19912;-58
2022/04/17 04:53:56;;;;;;;6.25;2.47;;;3.90;97.90;;;;;;5053580;28;20032;-60
2022/04/17 04:56:23;;;;;;;5.13;2.40;;;4.00;97.50;;;;;;5053298;28;20060;-57
2022/04/17 04:58:49;;;;;;;4.78;2.30;;;4.20;96.90;;;;;;5053760;28;20104;-59
2022/04/17 05:01:14;;;;;;;3.38;2.13;;;4.30;96.50;;;;;;5053207;28;20460;-59
2022/04/17 05:03:41;;;;;;;4.57;2.70;;;4.40;96.50;;;;;;5053321;28;20028;-60
2022/04/17 05:06:07;;;;;;;4.63;2.28;;;4.40;96.50;;;;;;5052847;28;20025;-56
2022/04/17 05:08:34;;;;;;;4.45;2.22;;;4.60;96.20;;;;;;5053055;28;20027;-59
2022/04/17 05:10:59;;;;;;;5.60;2.67;;;5.00;96.10;;;;;;5051969;28;20033;-59
2022/04/17 05:13:25;;;;;;;4.10;2.05;;;5.40;95.00;;;;;;5053380;28;20074;-56
2022/04/17 05:15:50;;;;;;;7.53;3.90;;;5.80;93.80;;;;;;5052862;28;20041;-59
2022/04/17 05:18:16;;;;;;;9.30;3.20;;;6.20;92.70;;;;;;5052888;28;20021;-58
2022/04/17 05:20:41;;;;;;;3.55;1.95;;;6.30;91.90;;;;;;5053052;28;20032;-55
2022/04/17 05:23:29;;;;;;;4.55;2.20;;;6.50;91.30;;;;;;5053037;28;20017;-59
2022/04/17 05:25:56;;;;;;;5.20;2.15;;;6.70;91.60;;;;;;5052747;28;20013;-59
2022/04/17 05:28:22;;;;;;;5.43;2.33;;;7.10;90.60;;;;;;5051878;28;20035;-57
2022/04/17 05:30:48;;;;;;;4.93;2.03;;;7.70;88.30;;;;;;5052905;28;20024;-59
2022/04/17 05:33:17;;;;;;;7.95;2.40;;;8.30;87.10;;;;;;5052764;28;20040;-57
2022/04/17 05:35:42;;;;;;;2.97;1.67;;;8.90;82.60;;;;;;5052530;28;20060;-59
2022/04/17 05:38:08;;;;;;;5.00;2.00;;;9.80;81.80;;;;;;5052177;28;20060;-59
2022/04/17 05:40:37;;;;;;;3.30;1.52;;;10.60;76.20;;;;;;5052598;28;20112;-58
2022/04/17 05:43:03;;;;;;;4.22;2.20;;;11.20;73.80;;;;;;5052418;28;20021;-59
2022/04/17 05:45:29;;;;;;;2.88;1.95;;;11.20;72.30;;;;;;5052675;28;20025;-58
2022/04/17 05:47:56;;;;;;;4.25;1.85;;;11.00;72.90;;;;;;5052046;28;20455;-59
2022/04/17 05:50:22;;;;;;;6.35;1.67;;;10.90;72.10;;;;;;5052228;28;20037;-56
2022/04/17 05:52:48;;;;;;;5.93;2.20;;;11.00;72.90;;;;;;5052457;28;20035;-58
2022/04/17 05:55:14;;;;;;;4.47;1.88;;;10.80;73.60;;;;;;5052450;28;20032;-56
2022/04/17 05:57:40;;;;;;;6.88;2.22;;;10.80;73.40;;;;;;5052008;28;20053;-58
2022/04/17 06:00:08;;;;;;;4.00;2.00;;;11.10;71.60;;;;;;5052460;28;20044;-58
2022/04/17 06:02:35;;;;;;;3.00;1.70;;;11.30;71.00;;;;;;5051084;28;20036;-59
2022/04/17 06:05:01;;;;;;;4.03;2.75;;;11.90;71.80;;;;;;5052398;28;20089;-59
2022/04/17 06:07:28;;;;;;;3.55;2.22;;;12.20;69.40;;;;;;5051985;28;20104;-58
2022/04/17 06:09:53;;;;;;;5.40;2.53;;;12.70;69.70;;;;;;5052369;28;20439;-61
2022/04/17 06:12:19;;;;;;;3.08;1.83;;;13.70;67.50;;;;;;5052335;28;20078;-57
2022/04/17 06:14:44;;;;;;;7.07;2.08;;;14.30;64.40;;;;;;5052146;28;20072;-55
2022/04/17 06:17:10;;;;;;;5.00;2.13;;;15.30;61.40;;;;;;5051623;28;20484;-59
2022/04/17 06:19:36;;;;;;;7.28;2.40;;;15.90;60.30;;;;;;5051696;28;20515;-59
2022/04/17 06:22:02;;;;;;;5.40;1.85;;;16.90;58.40;;;;;;5052032;28;20507;-59
2022/04/17 06:24:27;;;;;;;4.90;1.85;;;17.00;57.20;;;;;;5052555;28;20025;-59
2022/04/17 06:26:53;;;;;;;3.72;1.95;;;16.80;56.90;;;;;;5051629;28;20031;-58
2022/04/17 06:29:19;;;;;;;3.03;1.60;;;17.20;57.30;;;;;;5052118;28;20025;-59
2022/04/17 06:31:45;;;;;;;5.30;1.70;;;17.90;54.60;;;;;;5051780;28;20495;-59
2022/04/17 06:34:12;;;;;;;3.97;1.83;;;18.50;53.50;;;;;;5051357;28;20528;-60
2022/04/17 06:36:38;;;;;;;5.88;1.25;;;18.70;52.70;;;;;;5051255;28;20025;-59
2022/04/17 06:39:04;;;;;;;3.17;1.65;;;18.70;53.20;;;;;;5051017;28;20391;-60
2022/04/17 06:41:30;;;;;;;3.05;1.52;;;18.60;51.80;;;;;;5051593;28;20100;-59
2022/04/17 06:43:56;;;;;;;3.40;1.40;;;19.00;52.80;;;;;;5051552;28;20112;-60
2022/04/17 06:46:21;;;;;;;3.65;1.95;;;19.40;51.80;;;;;;5051543;28;20044;-61
2022/04/17 06:48:47;;;;;;;2.72;1.45;;;19.40;51.20;;;;;;5051366;28;20029;-59
2022/04/17 06:51:12;;;;;;;3.35;1.50;;;19.80;50.90;;;;;;5051516;28;20021;-59
2022/04/17 06:53:38;;;;;;;4.82;1.52;;;19.10;50.20;;;;;;5051416;28;20032;-61
2022/04/17 06:56:04;;;;;;;4.47;1.95;;;19.50;49.90;;;;;;5050901;28;20484;-59
2022/04/17 06:58:29;;;;;;;2.45;1.35;;;19.20;50.10;;;;;;5051154;28;20107;-61
2022/04/17 07:00:55;;;;;;;2.17;1.33;;;19.50;49.80;;;;;;5051360;28;20421;-61
2022/04/17 07:03:20;;;;;;;5.03;1.48;;;19.60;50.20;;;;;;5051232;28;20036;-61
2022/04/17 07:05:46;;;;;;;3.65;1.73;;;20.30;49.70;;;;;;5050914;28;20028;-62
2022/04/17 07:08:12;;;;;;;3.17;1.73;;;20.70;47.40;;;;;;5051019;28;20045;-61
2022/04/17 07:10:40;;;;;;;5.28;2.15;;;21.70;47.80;;;;;;5051232;28;20025;-61
2022/04/17 07:13:11;;;;;;;3.15;1.42;;;21.30;48.00;;;;;;5051191;28;20073;-62
2022/04/17 07:15:37;;;;;;;4.35;1.88;;;21.30;46.90;;;;;;5051213;28;20029;-62
2022/04/17 07:18:02;;;;;;;2.90;1.48;;;21.10;47.30;;;;;;5051095;28;20017;-59
2022/04/17 07:20:29;;;;;;;4.10;1.65;;;21.50;46.50;;;;;;5051010;28;20036;-61
2022/04/17 07:22:55;;;;;;;2.60;1.30;;;22.10;46.40;;;;;;5051233;28;20024;-61
2022/04/17 07:25:21;;;;;;;2.75;1.35;;;22.30;46.80;;;;;;5051105;28;20013;-59
2022/04/17 07:27:51;;;;;;;6.00;1.20;;;22.70;45.30;;;;;;5050930;28;20403;-62
2022/04/17 07:30:22;;;;;;;2.85;1.33;;;22.10;46.60;;;;;;5051475;28;20025;-61
2022/04/17 07:32:50;;;;;;;5.28;1.80;;;23.10;45.30;;;;;;5050979;28;20040;-62
2022/04/17 07:35:17;;;;;;;3.20;1.45;;;24.30;43.50;;;;;;5050773;28;20033;-60
2022/04/17 07:38:07;;;;;;;7.05;1.90;;;23.70;44.50;;;;;;5050573;28;20476;-61
2022/04/17 07:40:35;;;;;;;4.53;1.40;;;24.10;42.20;;;;;;5050635;28;20079;-62
2022/04/17 07:43:02;;;;;;;3.67;1.50;;;22.50;44.90;;;;;;5050861;28;20071;-60
2022/04/17 07:45:29;;;;;;;3.30;1.30;;;23.00;44.80;;;;;;5050824;28;20018;-59
2022/04/17 07:47:54;;;;;;;3.35;1.83;;;22.80;42.60;;;;;;5050688;28;20037;-59
2022/04/17 07:50:23;;;;;;;3.80;1.40;;;22.90;43.40;;;;;;5051815;28;20082;-60
2022/04/17 07:52:49;;;;;;;3.63;1.30;;;22.30;44.00;;;;;;5054448;28;20025;-59
2022/04/17 07:55:16;;;;;;;3.17;1.70;;;22.70;44.70;;;;;;5054485;28;20105;-60
2022/04/17 08:00:32;;;;;;;2.90;1.52;;;22.50;44.10;;;;;;5054735;28;20105;-60
2022/04/17 08:03:08;;;;;;;2.72;1.40;;;22.50;43.30;;;;;;5054224;28;20024;-60
2022/04/17 08:05:40;;;;;;;3.80;1.52;;;21.80;43.60;;;;;;5054450;28;20017;-60
2022/04/17 08:08:08;;;;;;;2.85;1.20;;;21.70;45.00;;;;;;5053806;28;20025;-58
2022/04/17 08:10:34;;;;;;;2.85;1.35;;;22.20;42.80;;;;;;5054127;28;20033;-58
2022/04/17 08:13:00;;;;;;;3.95;1.50;;;22.10;43.50;;;;;;5053727;28;20556;-57
2022/04/17 08:15:26;;;;;;;4.07;1.70;;;21.60;43.50;;;;;;5053957;28;20076;-60
2022/04/17 08:17:52;;;;;;;2.13;1.23;;;21.60;43.90;;;;;;5053489;28;20064;-57
2022/04/17 08:20:17;;;;;;;3.05;1.25;;;21.10;43.50;;;;;;5053940;28;20028;-58
2022/04/17 08:22:43;;;;;;;5.45;1.50;;;20.90;44.90;;;;;;5053943;28;20557;-58
2022/04/17 08:25:08;;;;;;;2.50;1.40;;;21.30;45.90;;;;;;5053564;28;20104;-63
2022/04/17 08:27:34;;;;;;;4.65;1.50;;;21.70;44.40;;;;;;5053718;28;20024;-56
2022/04/17 08:30:01;;;;;;;3.03;1.30;;;21.80;45.30;;;;;;5053790;28;20056;-60
2022/04/17 08:32:27;;;;;;;2.63;1.58;;;21.40;45.30;;;;;;5053550;28;20017;-59
2022/04/17 08:34:52;;;;;;;2.50;1.40;;;21.70;45.60;;;;;;5053548;28;20044;-60
2022/04/17 08:37:18;;;;;;;4.22;1.50;;;22.70;45.70;;;;;;5053225;28;20013;-58
2022/04/17 08:39:43;;;;;;;3.85;1.42;;;22.20;44.00;;;;;;5053074;28;20029;-59
2022/04/17 08:42:10;;;;;;;3.15;1.40;;;22.90;44.40;;;;;;5053197;28;20033;-60
2022/04/17 08:44:35;;;;;;;4.25;1.98;;;22.40;44.70;;;;;;5053083;28;20032;-60
2022/04/17 08:47:02;;;;;;;5.75;1.70;;;23.20;44.10;;;;;;5052844;28;20396;-58
2022/04/17 08:49:28;;;;;;;1.70;1.30;;;23.60;42.30;;;;;;5052981;28;20033;-59
2022/04/17 08:51:55;;;;;;;2.35;1.52;;;23.30;41.80;;;;;;5053204;28;20032;-60
2022/04/17 08:54:24;;;;;;;9.10;1.60;;;23.50;43.90;;;;;;5053253;28;20021;-64
2022/04/17 08:56:49;;;;;;;2.50;1.48;;;23.30;42.90;;;;;;5052447;28;20029;-58
2022/04/17 08:59:15;;;;;;;2.60;1.30;;;22.60;42.00;;;;;;5052932;28;20033;-59
2022/04/17 09:01:41;;;;;;;2.72;1.40;;;22.00;44.20;;;;;;5052647;28;20029;-60
2022/04/17 09:04:07;;;;;;;2.80;1.38;;;22.30;43.80;;;;;;5053027;28;20037;-59
2022/04/17 09:06:35;;;;;;;1.60;1.20;;;22.10;45.00;;;;;;5052401;28;20067;-59
2022/04/17 09:09:05;;;;;;;2.10;1.30;;;22.60;44.40;;;;;;5053197;28;20036;-59
2022/04/17 09:11:33;;;;;;;2.67;1.50;;;22.30;44.30;;;;;;5053031;28;20021;-60
2022/04/17 09:14:02;;;;;;;5.10;1.40;;;22.40;44.60;;;;;;5052921;28;20020;-60
2022/04/17 09:16:35;;;;;;;2.90;1.50;;;22.90;43.50;;;;;;5052712;28;20013;-59
2022/04/17 09:19:15;;;;;;;4.03;1.40;;;23.20;44.30;;;;;;5052335;28;20017;-60
2022/04/17 09:21:41;;;;;;;1.80;1.33;;;22.90;44.30;;;;;;5032885;28;20040;-59
2022/04/17 09:24:20;;;;;;;2.95;1.30;;;22.70;43.80;;;;;;5032647;28;20038;-60
2022/04/17 09:26:54;;;;;;;4.22;1.50;;;23.10;42.10;;;;;;5032554;28;20018;-59
2022/04/17 09:29:25;;;;;;;2.90;1.33;;;22.50;42.80;;;;;;5032819;28;20458;-60
2022/04/17 09:32:02;;;;;;;2.22;1.15;;;21.80;43.00;;;;;;5032724;28;20104;-60
2022/04/17 09:34:40;;;;;;;3.90;1.52;;;22.40;44.60;;;;;;5032571;28;20032;-57
2022/04/17 09:37:17;;;;;;;2.95;1.17;;;22.40;43.80;;;;;;5045867;28;20083;-60
2022/04/17 09:39:44;;;;;;;3.00;1.23;;;22.00;44.60;;;;;;5052707;28;20476;-61
2022/04/17 09:42:10;;;;;;;2.10;1.20;;;21.90;44.00;;;;;;5051713;28;20025;-59
2022/04/17 09:44:45;;;;;;;3.20;1.30;;;22.00;43.40;;;;;;5051866;28;20032;-60
2022/04/17 09:47:12;;;;;;;4.90;1.38;;;22.30;43.50;;;;;;5051836;28;20547;-60
2022/04/17 09:49:56;;;;;;;5.15;1.35;;;22.60;42.50;;;;;;5052037;28;20025;-60
2022/04/17 09:52:24;;;;;;;4.38;1.10;;;22.50;43.20;;;;;;5052261;28;20403;-60
2022/04/17 09:54:50;;;;;;;1.73;1.00;;;22.40;44.00;;;;;;5052665;28;20023;-60
2022/04/17 09:57:30;;;;;;;3.75;1.30;;;22.70;44.00;;;;;;5050993;28;20480;-59
2022/04/17 10:00:16;;;;;;;2.90;1.10;;;22.00;42.60;;;;;;5049949;28;20075;-58
2022/04/17 10:02:44;;;;;;;2.63;1.40;;;21.50;44.00;;;;;;5052149;28;20029;-56
2022/04/17 10:05:12;;;;;;;5.05;1.42;;;21.50;44.70;;;;;;5050828;28;20078;-59
2022/04/17 10:07:40;;;;;;;2.35;1.27;;;21.20;45.30;;;;;;5051508;28;20043;-59
2022/04/17 10:10:07;;;;;;;2.50;1.70;;;20.70;44.40;;;;;;5052771;28;20527;-60
2022/04/17 10:12:34;;;;;;;1.80;1.30;;;19.80;42.60;;;;;;5051773;28;20029;-59
2022/04/17 10:15:04;;;;;;;4.88;2.53;;;19.60;44.00;;;;;;5052109;28;20028;-57
2022/04/17 10:17:30;;;;;;;1.92;1.08;;;19.30;43.60;;;;;;5050817;28;20446;-58
2022/04/17 10:20:02;;;;;;;3.90;1.58;;;18.90;43.70;;;;;;5051239;28;20033;-56
2022/04/17 10:22:33;;;;;;;2.78;1.30;;;18.60;44.10;;;;;;5044669;28;20024;-58
2022/04/17 10:24:59;;;;;;;3.17;1.02;;;18.50;45.20;;;;;;5051649;28;20028;-58
2022/04/17 10:27:30;;;;;;;1.92;1.25;;;18.50;45.60;;;;;;5051510;28;20021;-59
2022/04/17 10:30:16;;;;;;;2.30;1.35;;;18.40;46.00;;;;;;5052078;28;20020;-58
2022/04/17 10:32:51;;;;;;;2.70;1.23;;;18.30;46.40;;;;;;5051674;28;20044;-58
2022/04/17 10:35:53;;;;;;;3.17;1.20;;;18.30;46.50;;;;;;5052151;28;20019;-59
2022/04/17 10:38:28;;;;;;;1.77;1.10;;;18.50;47.70;;;;;;5051499;28;20070;-58
2022/04/17 10:41:05;;;;;;;2.90;1.25;;;18.30;45.80;;;;;;5050584;28;20036;-60
2022/04/17 10:43:58;;;;;;;2.38;1.27;;;18.50;47.10;;;;;;5051863;28;20022;-59
2022/04/17 10:46:24;;;;;;;4.28;1.00;;;18.50;46.20;;;;;;5051523;28;20056;-59
2022/04/17 10:49:01;;;;;;;2.83;1.10;;;18.50;45.70;;;;;;5051352;28;20031;-58
2022/04/17 10:51:30;;;;;;;2.17;1.25;;;18.60;48.20;;;;;;5051747;28;20368;-59
2022/04/17 10:54:03;;;;;;;1.70;1.20;;;18.50;46.30;;;;;;5051664;28;20025;-59
2022/04/17 10:56:30;;;;;;;5.15;1.55;;;18.30;46.60;;;;;;5039241;28;20037;-60
2022/04/17 10:59:01;;;;;;;3.85;1.20;;;18.10;47.00;;;;;;5051226;28;20112;-60
2022/04/17 11:01:41;;;;;;;1.63;0.90;;;18.10;48.30;;;;;;5051652;28;20580;-60
2022/04/17 11:04:25;;;;;;;1.85;1.00;;;18.20;48.80;;;;;;5051770;28;20029;-59
2022/04/17 11:07:14;;;;;;;4.20;1.25;;;18.10;48.30;;;;;;5050838;28;20250;-59
2022/04/17 11:09:45;;;;;;;3.00;1.33;;;18.10;48.60;;;;;;5051276;28;20052;-60
2022/04/17 11:12:10;;;;;;;1.50;0.95;;;18.20;48.90;;;;;;5051209;28;20400;-58
2022/04/17 11:14:39;;;;;;;3.67;1.25;;;18.30;48.80;;;;;;5051398;28;20029;-60
2022/04/17 11:17:11;;;;;;;1.60;1.05;;;18.40;48.00;;;;;;5051097;28;20025;-59
2022/04/17 11:19:38;;;;;;;4.57;1.17;;;18.50;48.70;;;;;;5051325;28;20048;-61
2022/04/17 11:22:05;;;;;;;1.83;1.00;;;18.30;49.00;;;;;;5050852;28;20072;-62
2022/04/17 11:24:57;;;;;;;4.90;1.30;;;18.30;49.30;;;;;;5051195;28;20036;-59
2022/04/17 11:27:55;;;;;;;5.45;1.58;;;18.20;47.00;;;;;;5054602;28;20021;-61
2022/04/17 11:30:23;;;;;;;1.20;0.90;;;17.90;47.10;;;;;;5031998;28;20040;-61
2022/04/17 11:32:51;;;;;;;3.20;1.10;;;17.70;49.20;;;;;;5054848;28;20456;-61
2022/04/17 11:35:22;;;;;;;2.95;1.13;;;17.80;49.50;;;;;;5054513;28;20033;-59
2022/04/17 11:38:05;;;;;;;3.08;1.08;;;18.10;48.90;;;;;;5054160;28;20024;-60
2022/04/17 11:40:33;;;;;;;2.75;1.33;;;17.90;48.20;;;;;;5054509;28;20021;-60
2022/04/17 11:43:25;;;;;;;4.85;1.30;;;18.00;48.20;;;;;;5054681;28;20291;-61
2022/04/17 11:45:50;;;;;;;3.88;1.00;;;17.90;47.50;;;;;;5052480;28;20091;-60
2022/04/17 11:48:17;;;;;;;3.33;1.23;;;17.70;47.90;;;;;;5054294;28;20443;-59
2022/04/17 11:50:43;;;;;;;4.10;1.50;;;17.50;46.80;;;;;;5053942;28;20029;-61
2022/04/17 11:53:10;;;;;;;3.65;1.38;;;17.50;48.60;;;;;;5054493;28;20307;-59
2022/04/17 11:55:38;;;;;;;1.60;1.05;;;17.50;47.90;;;;;;5054345;28;20036;-60
2022/04/17 11:58:09;;;;;;;3.10;1.40;;;17.50;49.40;;;;;;5054147;28;20087;-60
2022/04/17 12:00:35;;;;;;;1.50;1.25;;;17.60;50.40;;;;;;5054368;28;20468;-59
2022/04/17 12:03:05;;;;;;;2.33;1.20;;;17.50;47.60;;;;;;5054285;28;20036;-58
2022/04/17 12:05:32;;;;;;;4.15;1.25;;;17.60;48.50;;;;;;5053673;28;20025;-60
2022/04/17 12:08:02;;;;;;;2.92;1.20;;;17.70;48.40;;;;;;5053907;28;20096;-58
2022/04/17 12:10:28;;;;;;;3.22;1.15;;;17.60;49.70;;;;;;5054164;28;20025;-58
2022/04/17 12:12:54;;;;;;;1.88;0.88;;;17.80;49.80;;;;;;5054186;28;20027;-61
2022/04/17 12:15:21;;;;;;;4.38;1.38;;;18.00;48.40;;;;;;5053015;28;20399;-61
2022/04/17 12:17:57;;;;;;;2.17;1.20;;;17.80;48.40;;;;;;5052944;28;20396;-60
2022/04/17 12:20:24;;;;;;;2.05;1.00;;;17.80;49.60;;;;;;5053666;28;20060;-60
2022/04/17 12:22:50;;;;;;;2.75;1.23;;;17.80;50.40;;;;;;5053247;28;20032;-59
2022/04/17 12:25:19;;;;;;;1.80;1.20;;;17.80;49.30;;;;;;5052833;28;20017;-59
2022/04/17 12:27:48;;;;;;;2.25;0.90;;;17.70;46.70;;;;;;5052918;28;20029;-58
2022/04/17 12:30:21;;;;;;;1.30;0.80;;;17.70;47.90;;;;;;5053596;28;20021;-58
2022/04/17 12:32:48;;;;;;;2.58;1.00;;;17.50;47.30;;;;;;5052604;28;20017;-59
2022/04/17 12:35:22;;;;;;;2.15;1.02;;;17.30;47.30;;;;;;5052933;28;20021;-58
2022/04/17 12:37:48;;;;;;;2.17;1.10;;;17.40;48.40;;;;;;5052019;28;20047;-61
2022/04/17 12:40:18;;;;;;;3.05;1.35;;;17.50;48.10;;;;;;5053731;28;20021;-59
2022/04/17 12:42:44;;;;;;;4.32;1.02;;;17.50;47.10;;;;;;5053538;28;20240;-59
2022/04/17 12:45:21;;;;;;;3.40;1.30;;;17.50;46.60;;;;;;5052939;28;20034;-58
2022/04/17 12:48:03;;;;;;;5.18;1.40;;;17.50;47.60;;;;;;5052810;28;20029;-59
2022/04/17 12:50:29;;;;;;;1.35;0.75;;;17.40;46.70;;;;;;5052488;28;20017;-61
2022/04/17 12:52:58;;;;;;;3.05;1.55;;;17.50;47.90;;;;;;5053260;28;20636;-61
2022/04/17 12:55:34;;;;;;;3.25;1.02;;;17.60;48.20;;;;;;5052654;28;20059;-59
2022/04/17 12:58:01;;;;;;;2.00;1.10;;;17.70;46.30;;;;;;5052749;28;20029;-59
2022/04/17 13:00:28;;;;;;;1.65;0.90;;;17.60;46.00;;;;;;5052623;28;20045;-61
2022/04/17 13:03:14;;;;;;;2.33;1.20;;;17.50;44.30;;;;;;5053519;28;20029;-60
2022/04/17 13:05:41;;;;;;;2.15;1.00;;;17.50;46.20;;;;;;5052696;28;20040;-61
2022/04/17 13:08:10;;;;;;;2.72;1.10;;;17.50;45.60;;;;;;5053028;28;20111;-60